sensor_id;sensor_type;location;lat;lon;timestamp;P1;durP1;ratioP1;P2;durP2;ratioP2
45206;SDS011;30950;53.086;21.576;2023-08-24T00:00:31;8.80;;;4.30;;
45206;SDS011;30950;53.086;21.576;2023-08-24T00:03:20;6.75;;;4.53;;
45206;SDS011;30950;53.086;21.576;2023-08-24T00:05:49;6.25;;;3.65;;
45206;SDS011;30950;53.086;21.576;2023-08-24T00:08:16;10.52;;;4.03;;
45206;SDS011;30950;53.086;21.576;2023-08-24T00:10:44;6.90;;;3.88;;
45206;SDS011;30950;53.086;21.576;2023-08-24T00:13:13;8.63;;;4.15;;
45206;SDS011;30950;53.086;21.576;2023-08-24T00:15:41;9.18;;;3.90;;
45206;SDS011;30950;53.086;21.576;2023-08-24T00:18:09;8.32;;;3.60;;
45206;SDS011;30950;53.086;21.576;2023-08-24T00:20:36;4.70;;;3.17;;
45206;SDS011;30950;53.086;21.576;2023-08-24T00:23:04;6.50;;;3.90;;
45206;SDS011;30950;53.086;21.576;2023-08-24T00:25:31;7.03;;;3.67;;
45206;SDS011;30950;53.086;21.576;2023-08-24T00:27:58;7.35;;;3.40;;
45206;SDS011;30950;53.086;21.576;2023-08-24T00:30:26;7.75;;;4.20;;
45206;SDS011;30950;53.086;21.576;2023-08-24T00:32:53;7.03;;;4.07;;
45206;SDS011;30950;53.086;21.576;2023-08-24T00:35:21;9.10;;;4.45;;
45206;SDS011;30950;53.086;21.576;2023-08-24T00:37:48;7.80;;;4.07;;
45206;SDS011;30950;53.086;21.576;2023-08-24T00:40:17;6.30;;;3.40;;
45206;SDS011;30950;53.086;21.576;2023-08-24T00:42:46;7.55;;;3.58;;
45206;SDS011;30950;53.086;21.576;2023-08-24T00:45:13;7.22;;;3.67;;
45206;SDS011;30950;53.086;21.576;2023-08-24T00:47:43;5.82;;;3.40;;
45206;SDS011;30950;53.086;21.576;2023-08-24T00:50:12;6.05;;;3.40;;
45206;SDS011;30950;53.086;21.576;2023-08-24T00:52:41;5.25;;;3.22;;
45206;SDS011;30950;53.086;21.576;2023-08-24T00:55:09;10.23;;;3.88;;
45206;SDS011;30950;53.086;21.576;2023-08-24T00:57:37;5.57;;;3.20;;
45206;SDS011;30950;53.086;21.576;2023-08-24T01:00:06;5.78;;;3.28;;
45206;SDS011;30950;53.086;21.576;2023-08-24T01:02:38;6.43;;;3.30;;
45206;SDS011;30950;53.086;21.576;2023-08-24T01:05:05;6.57;;;3.42;;
45206;SDS011;30950;53.086;21.576;2023-08-24T01:07:37;6.70;;;3.20;;
45206;SDS011;30950;53.086;21.576;2023-08-24T01:10:08;7.47;;;3.83;;
45206;SDS011;30950;53.086;21.576;2023-08-24T01:15:28;7.65;;;3.65;;
45206;SDS011;30950;53.086;21.576;2023-08-24T01:18:04;7.55;;;4.03;;
45206;SDS011;30950;53.086;21.576;2023-08-24T01:20:35;7.43;;;4.78;;
45206;SDS011;30950;53.086;21.576;2023-08-24T01:28:37;7.05;;;3.83;;
45206;SDS011;30950;53.086;21.576;2023-08-24T01:31:06;7.00;;;3.53;;
45206;SDS011;30950;53.086;21.576;2023-08-24T01:33:34;9.50;;;3.80;;
45206;SDS011;30950;53.086;21.576;2023-08-24T01:36:02;7.78;;;3.60;;
45206;SDS011;30950;53.086;21.576;2023-08-24T01:38:30;7.53;;;3.33;;
45206;SDS011;30950;53.086;21.576;2023-08-24T01:43:36;6.00;;;3.47;;
45206;SDS011;30950;53.086;21.576;2023-08-24T01:46:10;6.95;;;3.40;;
45206;SDS011;30950;53.086;21.576;2023-08-24T01:48:42;8.30;;;4.07;;
45206;SDS011;30950;53.086;21.576;2023-08-24T01:51:11;7.82;;;3.70;;
45206;SDS011;30950;53.086;21.576;2023-08-24T01:53:39;8.30;;;4.80;;
45206;SDS011;30950;53.086;21.576;2023-08-24T01:56:08;5.97;;;3.72;;
45206;SDS011;30950;53.086;21.576;2023-08-24T01:58:37;7.57;;;4.10;;
45206;SDS011;30950;53.086;21.576;2023-08-24T02:01:05;9.40;;;3.72;;
45206;SDS011;30950;53.086;21.576;2023-08-24T02:03:33;8.40;;;4.05;;
45206;SDS011;30950;53.086;21.576;2023-08-24T02:06:00;6.95;;;4.03;;
45206;SDS011;30950;53.086;21.576;2023-08-24T02:08:29;8.20;;;4.22;;
45206;SDS011;30950;53.086;21.576;2023-08-24T02:10:57;8.27;;;4.75;;
45206;SDS011;30950;53.086;21.576;2023-08-24T02:13:25;7.50;;;4.28;;
45206;SDS011;30950;53.086;21.576;2023-08-24T02:16:05;15.32;;;4.55;;
45206;SDS011;30950;53.086;21.576;2023-08-24T02:18:36;7.75;;;4.60;;
45206;SDS011;30950;53.086;21.576;2023-08-24T02:21:06;8.15;;;4.85;;
45206;SDS011;30950;53.086;21.576;2023-08-24T02:23:35;7.82;;;5.10;;
45206;SDS011;30950;53.086;21.576;2023-08-24T02:26:03;7.85;;;4.80;;
45206;SDS011;30950;53.086;21.576;2023-08-24T02:28:32;9.25;;;4.72;;
45206;SDS011;30950;53.086;21.576;2023-08-24T02:31:01;13.40;;;5.05;;
45206;SDS011;30950;53.086;21.576;2023-08-24T02:33:29;8.05;;;4.97;;
45206;SDS011;30950;53.086;21.576;2023-08-24T02:35:57;10.70;;;5.10;;
45206;SDS011;30950;53.086;21.576;2023-08-24T02:38:25;7.53;;;5.22;;
45206;SDS011;30950;53.086;21.576;2023-08-24T02:41:02;9.90;;;4.88;;
45206;SDS011;30950;53.086;21.576;2023-08-24T02:43:34;10.25;;;5.35;;
45206;SDS011;30950;53.086;21.576;2023-08-24T02:46:03;8.02;;;4.97;;
45206;SDS011;30950;53.086;21.576;2023-08-24T02:48:35;18.70;;;6.13;;
45206;SDS011;30950;53.086;21.576;2023-08-24T02:51:04;7.97;;;5.43;;
45206;SDS011;30950;53.086;21.576;2023-08-24T02:53:32;9.73;;;5.10;;
45206;SDS011;30950;53.086;21.576;2023-08-24T02:55:59;6.28;;;5.10;;
45206;SDS011;30950;53.086;21.576;2023-08-24T02:58:27;10.73;;;5.22;;
45206;SDS011;30950;53.086;21.576;2023-08-24T03:00:55;10.52;;;5.60;;
45206;SDS011;30950;53.086;21.576;2023-08-24T03:03:23;8.73;;;5.35;;
45206;SDS011;30950;53.086;21.576;2023-08-24T03:05:59;8.68;;;5.38;;
45206;SDS011;30950;53.086;21.576;2023-08-24T03:08:30;12.00;;;5.68;;
45206;SDS011;30950;53.086;21.576;2023-08-24T03:11:02;8.38;;;5.18;;
45206;SDS011;30950;53.086;21.576;2023-08-24T03:13:30;9.25;;;4.80;;
45206;SDS011;30950;53.086;21.576;2023-08-24T03:16:02;10.43;;;5.43;;
45206;SDS011;30950;53.086;21.576;2023-08-24T03:18:31;10.07;;;5.38;;
45206;SDS011;30950;53.086;21.576;2023-08-24T03:21:01;11.75;;;5.13;;
45206;SDS011;30950;53.086;21.576;2023-08-24T03:23:28;8.70;;;5.68;;
45206;SDS011;30950;53.086;21.576;2023-08-24T03:25:56;11.27;;;5.25;;
45206;SDS011;30950;53.086;21.576;2023-08-24T03:28:24;16.25;;;12.23;;
45206;SDS011;30950;53.086;21.576;2023-08-24T03:30:52;9.63;;;5.85;;
45206;SDS011;30950;53.086;21.576;2023-08-24T03:33:22;8.50;;;5.47;;
45206;SDS011;30950;53.086;21.576;2023-08-24T03:35:50;11.68;;;6.20;;
45206;SDS011;30950;53.086;21.576;2023-08-24T03:38:19;8.18;;;5.50;;
45206;SDS011;30950;53.086;21.576;2023-08-24T03:40:46;7.82;;;5.43;;
45206;SDS011;30950;53.086;21.576;2023-08-24T03:43:13;14.02;;;6.15;;
45206;SDS011;30950;53.086;21.576;2023-08-24T03:45:41;10.02;;;5.90;;
45206;SDS011;30950;53.086;21.576;2023-08-24T03:48:10;8.35;;;5.28;;
45206;SDS011;30950;53.086;21.576;2023-08-24T03:50:38;11.57;;;6.35;;
45206;SDS011;30950;53.086;21.576;2023-08-24T03:53:06;11.52;;;5.53;;
45206;SDS011;30950;53.086;21.576;2023-08-24T03:55:33;10.65;;;6.03;;
45206;SDS011;30950;53.086;21.576;2023-08-24T03:58:01;14.35;;;6.15;;
45206;SDS011;30950;53.086;21.576;2023-08-24T04:00:29;10.13;;;6.20;;
45206;SDS011;30950;53.086;21.576;2023-08-24T04:03:00;12.38;;;5.75;;
45206;SDS011;30950;53.086;21.576;2023-08-24T04:05:29;8.95;;;6.15;;
45206;SDS011;30950;53.086;21.576;2023-08-24T04:07:56;9.25;;;6.45;;
45206;SDS011;30950;53.086;21.576;2023-08-24T04:10:24;13.00;;;6.13;;
45206;SDS011;30950;53.086;21.576;2023-08-24T04:12:52;10.50;;;5.82;;
45206;SDS011;30950;53.086;21.576;2023-08-24T04:15:19;9.20;;;6.05;;
45206;SDS011;30950;53.086;21.576;2023-08-24T04:17:47;10.52;;;5.50;;
45206;SDS011;30950;53.086;21.576;2023-08-24T04:20:15;10.02;;;5.88;;
45206;SDS011;30950;53.086;21.576;2023-08-24T04:22:42;13.20;;;6.65;;
45206;SDS011;30950;53.086;21.576;2023-08-24T04:25:10;14.85;;;6.65;;
45206;SDS011;30950;53.086;21.576;2023-08-24T04:27:37;11.45;;;6.35;;
45206;SDS011;30950;53.086;21.576;2023-08-24T04:30:05;8.68;;;6.20;;
45206;SDS011;30950;53.086;21.576;2023-08-24T04:32:38;9.73;;;6.53;;
45206;SDS011;30950;53.086;21.576;2023-08-24T04:35:05;7.88;;;6.10;;
45206;SDS011;30950;53.086;21.576;2023-08-24T04:37:34;9.38;;;6.68;;
45206;SDS011;30950;53.086;21.576;2023-08-24T04:40:02;11.73;;;6.82;;
45206;SDS011;30950;53.086;21.576;2023-08-24T04:42:30;12.98;;;6.00;;
45206;SDS011;30950;53.086;21.576;2023-08-24T04:44:57;10.50;;;6.18;;
45206;SDS011;30950;53.086;21.576;2023-08-24T04:47:27;10.63;;;6.15;;
45206;SDS011;30950;53.086;21.576;2023-08-24T04:49:54;8.88;;;6.13;;
45206;SDS011;30950;53.086;21.576;2023-08-24T04:52:22;13.20;;;6.55;;
45206;SDS011;30950;53.086;21.576;2023-08-24T04:54:50;9.25;;;5.85;;
45206;SDS011;30950;53.086;21.576;2023-08-24T04:57:17;10.65;;;6.10;;
45206;SDS011;30950;53.086;21.576;2023-08-24T04:59:45;9.25;;;6.22;;
45206;SDS011;30950;53.086;21.576;2023-08-24T05:02:12;11.23;;;6.35;;
45206;SDS011;30950;53.086;21.576;2023-08-24T05:04:41;13.18;;;6.07;;
45206;SDS011;30950;53.086;21.576;2023-08-24T05:07:08;10.30;;;6.35;;
45206;SDS011;30950;53.086;21.576;2023-08-24T05:09:35;11.70;;;6.75;;
45206;SDS011;30950;53.086;21.576;2023-08-24T05:12:02;8.77;;;6.55;;
45206;SDS011;30950;53.086;21.576;2023-08-24T05:14:31;14.70;;;7.13;;
45206;SDS011;30950;53.086;21.576;2023-08-24T05:16:59;9.82;;;6.15;;
45206;SDS011;30950;53.086;21.576;2023-08-24T05:19:27;13.85;;;6.22;;
45206;SDS011;30950;53.086;21.576;2023-08-24T05:21:55;12.52;;;6.30;;
45206;SDS011;30950;53.086;21.576;2023-08-24T05:24:23;14.32;;;6.75;;
45206;SDS011;30950;53.086;21.576;2023-08-24T05:26:50;15.05;;;6.93;;
45206;SDS011;30950;53.086;21.576;2023-08-24T05:29:17;16.42;;;7.15;;
45206;SDS011;30950;53.086;21.576;2023-08-24T05:31:44;9.13;;;6.43;;
45206;SDS011;30950;53.086;21.576;2023-08-24T05:34:12;12.98;;;6.63;;
45206;SDS011;30950;53.086;21.576;2023-08-24T05:36:40;14.43;;;7.20;;
45206;SDS011;30950;53.086;21.576;2023-08-24T05:39:07;11.43;;;6.07;;
45206;SDS011;30950;53.086;21.576;2023-08-24T05:41:35;12.45;;;6.63;;
45206;SDS011;30950;53.086;21.576;2023-08-24T05:44:04;17.08;;;6.72;;
45206;SDS011;30950;53.086;21.576;2023-08-24T05:46:31;11.77;;;6.18;;
45206;SDS011;30950;53.086;21.576;2023-08-24T05:48:59;12.10;;;6.55;;
45206;SDS011;30950;53.086;21.576;2023-08-24T05:51:26;14.63;;;8.23;;
45206;SDS011;30950;53.086;21.576;2023-08-24T05:53:54;18.00;;;7.57;;
45206;SDS011;30950;53.086;21.576;2023-08-24T05:56:22;15.60;;;8.35;;
45206;SDS011;30950;53.086;21.576;2023-08-24T05:58:50;11.82;;;6.22;;
45206;SDS011;30950;53.086;21.576;2023-08-24T06:01:17;12.55;;;6.78;;
45206;SDS011;30950;53.086;21.576;2023-08-24T06:03:45;13.63;;;7.50;;
45206;SDS011;30950;53.086;21.576;2023-08-24T06:06:12;14.48;;;7.50;;
45206;SDS011;30950;53.086;21.576;2023-08-24T06:08:40;12.23;;;6.50;;
45206;SDS011;30950;53.086;21.576;2023-08-24T06:11:07;11.52;;;5.80;;
45206;SDS011;30950;53.086;21.576;2023-08-24T06:13:35;10.88;;;6.32;;
45206;SDS011;30950;53.086;21.576;2023-08-24T06:16:02;14.00;;;5.85;;
45206;SDS011;30950;53.086;21.576;2023-08-24T06:18:30;10.05;;;5.60;;
45206;SDS011;30950;53.086;21.576;2023-08-24T06:20:57;12.15;;;6.22;;
45206;SDS011;30950;53.086;21.576;2023-08-24T06:23:24;12.68;;;5.13;;
45206;SDS011;30950;53.086;21.576;2023-08-24T06:25:52;9.25;;;5.30;;
45206;SDS011;30950;53.086;21.576;2023-08-24T06:28:19;9.63;;;5.43;;
45206;SDS011;30950;53.086;21.576;2023-08-24T06:30:47;10.25;;;4.75;;
45206;SDS011;30950;53.086;21.576;2023-08-24T06:33:16;8.32;;;4.80;;
45206;SDS011;30950;53.086;21.576;2023-08-24T06:35:43;7.63;;;4.78;;
45206;SDS011;30950;53.086;21.576;2023-08-24T06:38:11;6.18;;;4.40;;
45206;SDS011;30950;53.086;21.576;2023-08-24T06:40:38;12.73;;;5.18;;
45206;SDS011;30950;53.086;21.576;2023-08-24T06:43:06;7.32;;;4.70;;
45206;SDS011;30950;53.086;21.576;2023-08-24T06:45:33;10.95;;;5.10;;
45206;SDS011;30950;53.086;21.576;2023-08-24T06:48:00;9.38;;;4.90;;
45206;SDS011;30950;53.086;21.576;2023-08-24T06:50:28;7.63;;;4.25;;
45206;SDS011;30950;53.086;21.576;2023-08-24T06:52:55;10.77;;;4.50;;
45206;SDS011;30950;53.086;21.576;2023-08-24T06:55:23;8.95;;;4.13;;
45206;SDS011;30950;53.086;21.576;2023-08-24T06:57:50;8.65;;;4.18;;
45206;SDS011;30950;53.086;21.576;2023-08-24T07:00:21;7.35;;;3.95;;
45206;SDS011;30950;53.086;21.576;2023-08-24T07:02:51;8.23;;;3.72;;
45206;SDS011;30950;53.086;21.576;2023-08-24T07:05:19;10.18;;;3.90;;
45206;SDS011;30950;53.086;21.576;2023-08-24T07:07:49;6.43;;;3.55;;
45206;SDS011;30950;53.086;21.576;2023-08-24T07:10:17;6.63;;;3.90;;
45206;SDS011;30950;53.086;21.576;2023-08-24T07:12:45;7.00;;;4.05;;
45206;SDS011;30950;53.086;21.576;2023-08-24T07:15:13;5.25;;;3.63;;
45206;SDS011;30950;53.086;21.576;2023-08-24T07:17:40;6.95;;;3.85;;
45206;SDS011;30950;53.086;21.576;2023-08-24T07:20:08;11.15;;;3.83;;
45206;SDS011;30950;53.086;21.576;2023-08-24T07:22:36;7.60;;;4.15;;
45206;SDS011;30950;53.086;21.576;2023-08-24T07:25:04;7.82;;;3.97;;
45206;SDS011;30950;53.086;21.576;2023-08-24T07:27:32;6.43;;;3.45;;
45206;SDS011;30950;53.086;21.576;2023-08-24T07:30:01;12.25;;;3.80;;
45206;SDS011;30950;53.086;21.576;2023-08-24T07:32:48;7.07;;;3.70;;
45206;SDS011;30950;53.086;21.576;2023-08-24T07:35:15;9.25;;;3.83;;
45206;SDS011;30950;53.086;21.576;2023-08-24T07:37:43;8.65;;;4.32;;
45206;SDS011;30950;53.086;21.576;2023-08-24T07:40:10;8.95;;;4.13;;
45206;SDS011;30950;53.086;21.576;2023-08-24T07:42:48;6.68;;;4.32;;
45206;SDS011;30950;53.086;21.576;2023-08-24T07:45:20;9.73;;;3.90;;
45206;SDS011;30950;53.086;21.576;2023-08-24T07:47:47;7.18;;;3.72;;
45206;SDS011;30950;53.086;21.576;2023-08-24T07:50:16;4.65;;;3.25;;
45206;SDS011;30950;53.086;21.576;2023-08-24T07:52:43;8.27;;;3.58;;
45206;SDS011;30950;53.086;21.576;2023-08-24T07:55:13;6.53;;;3.30;;
45206;SDS011;30950;53.086;21.576;2023-08-24T07:57:41;7.10;;;3.38;;
45206;SDS011;30950;53.086;21.576;2023-08-24T08:00:08;5.57;;;2.83;;
45206;SDS011;30950;53.086;21.576;2023-08-24T08:02:40;6.15;;;2.95;;
45206;SDS011;30950;53.086;21.576;2023-08-24T08:05:07;5.32;;;2.70;;
45206;SDS011;30950;53.086;21.576;2023-08-24T08:07:37;3.97;;;2.58;;
45206;SDS011;30950;53.086;21.576;2023-08-24T08:10:05;8.18;;;2.90;;
45206;SDS011;30950;53.086;21.576;2023-08-24T08:12:33;5.32;;;2.78;;
45206;SDS011;30950;53.086;21.576;2023-08-24T08:15:02;4.60;;;2.40;;
45206;SDS011;30950;53.086;21.576;2023-08-24T08:17:29;4.43;;;2.40;;
45206;SDS011;30950;53.086;21.576;2023-08-24T08:19:57;5.60;;;2.58;;
45206;SDS011;30950;53.086;21.576;2023-08-24T08:22:25;7.80;;;2.90;;
45206;SDS011;30950;53.086;21.576;2023-08-24T08:24:52;6.28;;;2.70;;
45206;SDS011;30950;53.086;21.576;2023-08-24T08:27:23;4.30;;;2.70;;
45206;SDS011;30950;53.086;21.576;2023-08-24T08:29:50;4.13;;;2.60;;
45206;SDS011;30950;53.086;21.576;2023-08-24T08:32:18;5.32;;;2.60;;
45206;SDS011;30950;53.086;21.576;2023-08-24T08:34:45;6.72;;;2.85;;
45206;SDS011;30950;53.086;21.576;2023-08-24T08:37:13;4.45;;;2.80;;
45206;SDS011;30950;53.086;21.576;2023-08-24T08:39:40;4.80;;;2.50;;
45206;SDS011;30950;53.086;21.576;2023-08-24T08:42:11;3.63;;;2.47;;
45206;SDS011;30950;53.086;21.576;2023-08-24T08:44:40;6.65;;;2.45;;
45206;SDS011;30950;53.086;21.576;2023-08-24T08:47:12;6.32;;;2.58;;
45206;SDS011;30950;53.086;21.576;2023-08-24T08:49:41;6.72;;;2.65;;
45206;SDS011;30950;53.086;21.576;2023-08-24T08:52:10;4.13;;;2.67;;
45206;SDS011;30950;53.086;21.576;2023-08-24T08:54:38;4.40;;;2.20;;
45206;SDS011;30950;53.086;21.576;2023-08-24T08:57:06;4.00;;;2.53;;
45206;SDS011;30950;53.086;21.576;2023-08-24T08:59:33;6.43;;;2.70;;
45206;SDS011;30950;53.086;21.576;2023-08-24T09:02:02;5.18;;;2.10;;
45206;SDS011;30950;53.086;21.576;2023-08-24T09:04:31;4.45;;;2.67;;
45206;SDS011;30950;53.086;21.576;2023-08-24T09:07:00;3.85;;;2.22;;
45206;SDS011;30950;53.086;21.576;2023-08-24T09:09:31;5.07;;;2.75;;
45206;SDS011;30950;53.086;21.576;2023-08-24T09:12:00;4.68;;;2.72;;
45206;SDS011;30950;53.086;21.576;2023-08-24T09:14:28;4.32;;;2.20;;
45206;SDS011;30950;53.086;21.576;2023-08-24T09:16:55;5.38;;;2.55;;
45206;SDS011;30950;53.086;21.576;2023-08-24T09:19:29;4.40;;;2.45;;
45206;SDS011;30950;53.086;21.576;2023-08-24T09:21:58;3.88;;;2.40;;
45206;SDS011;30950;53.086;21.576;2023-08-24T09:24:33;5.82;;;2.53;;
45206;SDS011;30950;53.086;21.576;2023-08-24T09:27:14;4.28;;;1.95;;
45206;SDS011;30950;53.086;21.576;2023-08-24T09:29:48;3.67;;;2.00;;
45206;SDS011;30950;53.086;21.576;2023-08-24T09:32:23;3.50;;;2.13;;
45206;SDS011;30950;53.086;21.576;2023-08-24T09:34:54;4.25;;;2.47;;
45206;SDS011;30950;53.086;21.576;2023-08-24T09:37:22;4.40;;;2.05;;
45206;SDS011;30950;53.086;21.576;2023-08-24T09:39:50;4.88;;;2.00;;
45206;SDS011;30950;53.086;21.576;2023-08-24T09:42:31;4.43;;;2.30;;
45206;SDS011;30950;53.086;21.576;2023-08-24T09:45:05;3.72;;;2.08;;
45206;SDS011;30950;53.086;21.576;2023-08-24T09:47:33;4.40;;;1.85;;
45206;SDS011;30950;53.086;21.576;2023-08-24T09:50:00;4.20;;;2.15;;
45206;SDS011;30950;53.086;21.576;2023-08-24T09:52:30;5.03;;;2.00;;
45206;SDS011;30950;53.086;21.576;2023-08-24T09:55:03;4.03;;;2.30;;
45206;SDS011;30950;53.086;21.576;2023-08-24T09:57:38;4.70;;;2.60;;
45206;SDS011;30950;53.086;21.576;2023-08-24T10:00:06;4.70;;;2.38;;
45206;SDS011;30950;53.086;21.576;2023-08-24T10:02:51;4.15;;;2.08;;
45206;SDS011;30950;53.086;21.576;2023-08-24T10:05:23;4.32;;;2.33;;
45206;SDS011;30950;53.086;21.576;2023-08-24T10:07:55;5.05;;;2.38;;
45206;SDS011;30950;53.086;21.576;2023-08-24T10:10:27;3.17;;;2.03;;
45206;SDS011;30950;53.086;21.576;2023-08-24T10:13:05;4.07;;;2.45;;
45206;SDS011;30950;53.086;21.576;2023-08-24T10:15:48;3.33;;;2.00;;
45206;SDS011;30950;53.086;21.576;2023-08-24T10:18:17;4.18;;;2.00;;
45206;SDS011;30950;53.086;21.576;2023-08-24T10:20:46;3.20;;;1.83;;
45206;SDS011;30950;53.086;21.576;2023-08-24T10:23:15;7.28;;;2.15;;
45206;SDS011;30950;53.086;21.576;2023-08-24T10:25:43;4.40;;;2.13;;
45206;SDS011;30950;53.086;21.576;2023-08-24T10:28:13;4.35;;;2.08;;
45206;SDS011;30950;53.086;21.576;2023-08-24T10:30:43;4.03;;;2.08;;
45206;SDS011;30950;53.086;21.576;2023-08-24T10:33:13;3.50;;;2.10;;
45206;SDS011;30950;53.086;21.576;2023-08-24T10:35:42;3.28;;;1.70;;
45206;SDS011;30950;53.086;21.576;2023-08-24T10:38:22;3.88;;;1.92;;
45206;SDS011;30950;53.086;21.576;2023-08-24T10:40:49;5.35;;;2.00;;
45206;SDS011;30950;53.086;21.576;2023-08-24T10:43:18;2.72;;;1.50;;
45206;SDS011;30950;53.086;21.576;2023-08-24T10:46:01;3.72;;;1.63;;
45206;SDS011;30950;53.086;21.576;2023-08-24T10:53:42;3.50;;;1.90;;
45206;SDS011;30950;53.086;21.576;2023-08-24T10:56:15;2.55;;;1.55;;
45206;SDS011;30950;53.086;21.576;2023-08-24T10:58:44;3.40;;;1.70;;
45206;SDS011;30950;53.086;21.576;2023-08-24T11:01:16;3.92;;;2.08;;
45206;SDS011;30950;53.086;21.576;2023-08-24T11:03:52;4.25;;;1.77;;
45206;SDS011;30950;53.086;21.576;2023-08-24T11:06:23;3.33;;;1.80;;
45206;SDS011;30950;53.086;21.576;2023-08-24T11:09:05;2.58;;;1.70;;
45206;SDS011;30950;53.086;21.576;2023-08-24T11:11:40;3.70;;;1.77;;
45206;SDS011;30950;53.086;21.576;2023-08-24T11:14:18;5.80;;;1.85;;
45206;SDS011;30950;53.086;21.576;2023-08-24T11:16:48;4.93;;;1.75;;
45206;SDS011;30950;53.086;21.576;2023-08-24T11:19:16;3.25;;;1.75;;
45206;SDS011;30950;53.086;21.576;2023-08-24T11:21:44;2.60;;;1.80;;
45206;SDS011;30950;53.086;21.576;2023-08-24T11:24:13;4.13;;;2.47;;
45206;SDS011;30950;53.086;21.576;2023-08-24T11:26:47;2.80;;;1.90;;
45206;SDS011;30950;53.086;21.576;2023-08-24T11:29:15;4.35;;;2.05;;
45206;SDS011;30950;53.086;21.576;2023-08-24T11:31:44;3.47;;;1.73;;
45206;SDS011;30950;53.086;21.576;2023-08-24T11:34:14;4.00;;;2.00;;
45206;SDS011;30950;53.086;21.576;2023-08-24T11:36:42;3.50;;;1.95;;
45206;SDS011;30950;53.086;21.576;2023-08-24T11:39:16;4.25;;;1.60;;
45206;SDS011;30950;53.086;21.576;2023-08-24T11:41:59;3.92;;;1.88;;
45206;SDS011;30950;53.086;21.576;2023-08-24T11:44:45;4.38;;;1.73;;
45206;SDS011;30950;53.086;21.576;2023-08-24T11:47:13;3.17;;;1.77;;
45206;SDS011;30950;53.086;21.576;2023-08-24T11:49:42;3.22;;;1.50;;
45206;SDS011;30950;53.086;21.576;2023-08-24T11:52:09;4.75;;;1.80;;
45206;SDS011;30950;53.086;21.576;2023-08-24T11:54:37;2.75;;;1.83;;
45206;SDS011;30950;53.086;21.576;2023-08-24T11:57:08;2.63;;;1.70;;
45206;SDS011;30950;53.086;21.576;2023-08-24T11:59:36;2.85;;;1.65;;
45206;SDS011;30950;53.086;21.576;2023-08-24T12:02:06;3.38;;;1.70;;
45206;SDS011;30950;53.086;21.576;2023-08-24T12:04:40;4.20;;;2.00;;
45206;SDS011;30950;53.086;21.576;2023-08-24T12:07:10;3.70;;;1.70;;
45206;SDS011;30950;53.086;21.576;2023-08-24T12:09:39;1.70;;;1.30;;
45206;SDS011;30950;53.086;21.576;2023-08-24T12:12:15;3.53;;;1.60;;
45206;SDS011;30950;53.086;21.576;2023-08-24T12:14:44;2.13;;;1.35;;
45206;SDS011;30950;53.086;21.576;2023-08-24T12:17:13;3.63;;;1.60;;
45206;SDS011;30950;53.086;21.576;2023-08-24T12:19:42;5.03;;;1.83;;
45206;SDS011;30950;53.086;21.576;2023-08-24T12:22:14;2.72;;;1.60;;
45206;SDS011;30950;53.086;21.576;2023-08-24T12:24:48;3.72;;;1.83;;
45206;SDS011;30950;53.086;21.576;2023-08-24T12:27:28;2.22;;;1.60;;
45206;SDS011;30950;53.086;21.576;2023-08-24T12:29:59;4.63;;;1.80;;
45206;SDS011;30950;53.086;21.576;2023-08-24T12:32:41;2.25;;;1.63;;
45206;SDS011;30950;53.086;21.576;2023-08-24T12:35:19;2.92;;;1.70;;
45206;SDS011;30950;53.086;21.576;2023-08-24T12:37:46;3.90;;;1.58;;
45206;SDS011;30950;53.086;21.576;2023-08-24T12:40:14;4.63;;;1.50;;
45206;SDS011;30950;53.086;21.576;2023-08-24T12:42:42;3.40;;;1.50;;
45206;SDS011;30950;53.086;21.576;2023-08-24T12:45:10;3.53;;;1.70;;
45206;SDS011;30950;53.086;21.576;2023-08-24T12:47:37;5.05;;;1.50;;
45206;SDS011;30950;53.086;21.576;2023-08-24T12:50:06;2.47;;;1.60;;
45206;SDS011;30950;53.086;21.576;2023-08-24T12:52:34;3.55;;;1.55;;
45206;SDS011;30950;53.086;21.576;2023-08-24T12:55:02;2.53;;;1.63;;
45206;SDS011;30950;53.086;21.576;2023-08-24T12:57:30;2.80;;;1.75;;
45206;SDS011;30950;53.086;21.576;2023-08-24T12:59:58;3.00;;;1.60;;
45206;SDS011;30950;53.086;21.576;2023-08-24T13:02:25;3.33;;;1.77;;
45206;SDS011;30950;53.086;21.576;2023-08-24T13:05:04;3.97;;;1.73;;
45206;SDS011;30950;53.086;21.576;2023-08-24T13:07:32;2.80;;;1.60;;
45206;SDS011;30950;53.086;21.576;2023-08-24T13:10:00;3.30;;;1.45;;
45206;SDS011;30950;53.086;21.576;2023-08-24T13:12:27;3.38;;;1.55;;
45206;SDS011;30950;53.086;21.576;2023-08-24T13:14:55;2.95;;;1.67;;
45206;SDS011;30950;53.086;21.576;2023-08-24T13:17:22;2.40;;;1.50;;
45206;SDS011;30950;53.086;21.576;2023-08-24T13:19:50;1.85;;;1.48;;
45206;SDS011;30950;53.086;21.576;2023-08-24T13:22:17;2.47;;;1.83;;
45206;SDS011;30950;53.086;21.576;2023-08-24T13:24:44;3.63;;;1.52;;
45206;SDS011;30950;53.086;21.576;2023-08-24T13:27:11;3.65;;;1.58;;
45206;SDS011;30950;53.086;21.576;2023-08-24T13:29:42;2.58;;;1.67;;
45206;SDS011;30950;53.086;21.576;2023-08-24T13:32:10;3.45;;;1.80;;
45206;SDS011;30950;53.086;21.576;2023-08-24T13:34:37;2.80;;;1.70;;
45206;SDS011;30950;53.086;21.576;2023-08-24T13:37:05;3.95;;;1.67;;
45206;SDS011;30950;53.086;21.576;2023-08-24T13:39:32;3.92;;;2.00;;
45206;SDS011;30950;53.086;21.576;2023-08-24T13:42:01;2.65;;;1.70;;
45206;SDS011;30950;53.086;21.576;2023-08-24T13:44:29;3.20;;;1.95;;
45206;SDS011;30950;53.086;21.576;2023-08-24T13:46:56;2.50;;;1.58;;
45206;SDS011;30950;53.086;21.576;2023-08-24T13:49:23;3.35;;;1.50;;
45206;SDS011;30950;53.086;21.576;2023-08-24T13:52:06;3.03;;;1.92;;
45206;SDS011;30950;53.086;21.576;2023-08-24T13:54:34;2.83;;;1.40;;
45206;SDS011;30950;53.086;21.576;2023-08-24T13:57:01;2.70;;;1.63;;
45206;SDS011;30950;53.086;21.576;2023-08-24T13:59:29;3.13;;;1.60;;
45206;SDS011;30950;53.086;21.576;2023-08-24T14:01:57;3.70;;;1.67;;
45206;SDS011;30950;53.086;21.576;2023-08-24T14:04:24;3.13;;;1.70;;
45206;SDS011;30950;53.086;21.576;2023-08-24T14:06:52;2.85;;;1.73;;
45206;SDS011;30950;53.086;21.576;2023-08-24T14:09:19;2.03;;;1.60;;
45206;SDS011;30950;53.086;21.576;2023-08-24T14:11:46;3.00;;;1.65;;
45206;SDS011;30950;53.086;21.576;2023-08-24T14:14:14;3.83;;;1.85;;
45206;SDS011;30950;53.086;21.576;2023-08-24T14:16:41;3.55;;;1.88;;
45206;SDS011;30950;53.086;21.576;2023-08-24T14:19:09;6.18;;;1.88;;
45206;SDS011;30950;53.086;21.576;2023-08-24T14:21:36;2.30;;;1.30;;
45206;SDS011;30950;53.086;21.576;2023-08-24T14:24:11;4.00;;;1.42;;
45206;SDS011;30950;53.086;21.576;2023-08-24T14:26:38;5.03;;;1.92;;
45206;SDS011;30950;53.086;21.576;2023-08-24T14:29:12;3.20;;;1.40;;
45206;SDS011;30950;53.086;21.576;2023-08-24T14:31:41;3.60;;;1.80;;
45206;SDS011;30950;53.086;21.576;2023-08-24T14:34:08;3.05;;;1.60;;
45206;SDS011;30950;53.086;21.576;2023-08-24T14:36:36;4.07;;;1.50;;
45206;SDS011;30950;53.086;21.576;2023-08-24T14:39:03;3.20;;;1.73;;
45206;SDS011;30950;53.086;21.576;2023-08-24T14:41:31;4.25;;;1.80;;
45206;SDS011;30950;53.086;21.576;2023-08-24T14:43:59;2.90;;;1.60;;
45206;SDS011;30950;53.086;21.576;2023-08-24T14:46:26;2.65;;;1.40;;
45206;SDS011;30950;53.086;21.576;2023-08-24T14:48:54;3.90;;;1.55;;
45206;SDS011;30950;53.086;21.576;2023-08-24T14:51:21;2.92;;;1.80;;
45206;SDS011;30950;53.086;21.576;2023-08-24T14:53:49;4.78;;;1.80;;
45206;SDS011;30950;53.086;21.576;2023-08-24T14:56:16;4.30;;;1.98;;
45206;SDS011;30950;53.086;21.576;2023-08-24T14:58:43;6.55;;;2.00;;